createdAt,value
2023-07-01T00:02:01.201Z,23.20
2023-07-01T00:04:31.990Z,23.33
2023-07-01T00:06:59.100Z,23.08
2023-07-01T00:09:26.060Z,23.03
2023-07-01T00:11:53.302Z,23.03
2023-07-01T00:14:20.378Z,23.02
2023-07-01T00:16:47.368Z,22.94
2023-07-01T00:19:14.357Z,23.02
2023-07-01T00:21:42.109Z,22.83
2023-07-01T00:24:09.243Z,22.89
2023-07-01T00:26:36.782Z,22.86
2023-07-01T00:29:03.913Z,23.02
2023-07-01T00:31:30.984Z,22.98
2023-07-01T00:33:58.127Z,22.87
2023-07-01T00:36:25.450Z,22.73
2023-07-01T00:38:52.423Z,22.72
2023-07-01T00:41:21.925Z,22.76
2023-07-01T00:43:49.553Z,22.74
2023-07-01T00:46:18.102Z,22.35
2023-07-01T00:48:46.053Z,22.04
2023-07-01T00:51:13.154Z,22.52
2023-07-01T00:53:41.319Z,22.59
2023-07-01T00:56:08.529Z,22.59
2023-07-01T00:58:36.167Z,22.51
2023-07-01T01:01:09.136Z,22.47
2023-07-01T01:03:51.557Z,22.65
2023-07-01T01:06:56.136Z,22.73
2023-07-01T01:09:43.453Z,22.87
2023-07-01T01:12:12.797Z,22.77
2023-07-01T01:14:41.092Z,21.37
2023-07-01T01:17:12.568Z,22.30
2023-07-01T01:19:47.440Z,21.91
2023-07-01T01:22:26.899Z,21.96
2023-07-01T01:24:59.877Z,21.98
2023-07-01T01:27:31.529Z,22.14
2023-07-01T01:29:58.987Z,21.96
2023-07-01T01:32:25.931Z,21.84
2023-07-01T01:34:52.953Z,21.72
2023-07-01T01:37:35.070Z,21.95
2023-07-01T01:40:14.667Z,21.92
2023-07-01T01:42:44.258Z,21.91
2023-07-01T01:45:11.348Z,21.99
2023-07-01T01:47:38.517Z,21.92
2023-07-01T01:50:09.701Z,21.81
2023-07-01T01:52:37.846Z,21.92
2023-07-01T01:55:06.796Z,21.91
2023-07-01T01:57:33.846Z,21.90
2023-07-01T02:00:00.757Z,21.94
2023-07-01T02:02:27.814Z,21.99
2023-07-01T02:04:54.871Z,22.08
2023-07-01T02:07:21.994Z,22.08
2023-07-01T02:09:48.922Z,22.00
2023-07-01T02:12:16.090Z,21.97
2023-07-01T02:14:42.979Z,21.86
2023-07-01T02:17:10.038Z,21.93
2023-07-01T02:19:37.069Z,21.88
2023-07-01T02:22:04.129Z,21.93
2023-07-01T02:24:31.103Z,21.92
2023-07-01T02:26:58.045Z,21.90
2023-07-01T02:29:24.974Z,21.96
2023-07-01T02:31:52.706Z,21.99
2023-07-01T02:34:27.099Z,21.91
2023-07-01T02:36:55.189Z,21.84
2023-07-01T02:39:22.105Z,21.82
2023-07-01T02:41:49.037Z,21.71
2023-07-01T02:44:16.037Z,21.49
2023-07-01T02:46:43.013Z,21.09
2023-07-01T02:49:10.056Z,21.06
2023-07-01T02:51:36.943Z,21.25
2023-07-01T02:54:03.947Z,21.08
2023-07-01T02:56:30.949Z,20.92
2023-07-01T02:58:57.875Z,20.99
2023-07-01T03:01:24.871Z,20.91
2023-07-01T03:03:52.822Z,20.99
2023-07-01T03:06:19.854Z,21.15
2023-07-01T03:08:46.855Z,21.07
2023-07-01T03:11:13.936Z,20.99
2023-07-01T03:13:40.901Z,20.87
2023-07-01T03:16:09.241Z,20.93
2023-07-01T03:18:36.854Z,20.93
2023-07-01T03:21:04.069Z,21.09
2023-07-01T03:23:31.805Z,21.07
2023-07-01T03:25:58.742Z,21.26
2023-07-01T03:28:25.737Z,21.04
2023-07-01T03:30:53.738Z,20.81
2023-07-01T03:33:20.791Z,20.87
2023-07-01T03:35:47.781Z,20.84
2023-07-01T03:38:15.076Z,20.79
2023-07-01T03:40:42.228Z,20.64
2023-07-01T03:43:09.112Z,20.84
2023-07-01T03:45:36.286Z,21.60
2023-07-01T03:48:03.439Z,21.68
2023-07-01T03:50:30.470Z,21.41
2023-07-01T03:52:57.383Z,21.35
2023-07-01T03:55:24.265Z,21.80
2023-07-01T03:57:51.122Z,21.71
2023-07-01T04:00:19.392Z,22.14
2023-07-01T04:02:51.476Z,22.32
2023-07-01T04:05:19.984Z,22.39
2023-07-01T04:07:49.343Z,22.58
2023-07-01T04:10:16.956Z,22.80
2023-07-01T04:12:44.035Z,22.82
2023-07-01T04:15:13.704Z,23.09
2023-07-01T04:17:46.095Z,23.28
2023-07-01T04:20:15.032Z,23.47
2023-07-01T04:22:43.039Z,23.53
2023-07-01T04:25:10.452Z,23.50
2023-07-01T04:27:37.495Z,23.77
2023-07-01T04:30:05.682Z,24.09
2023-07-01T04:32:32.615Z,24.06
2023-07-01T04:34:59.594Z,24.42
2023-07-01T04:37:26.908Z,24.68
2023-07-01T04:39:54.123Z,24.42
2023-07-01T04:42:21.201Z,24.45
2023-07-01T04:44:55.456Z,24.67
2023-07-01T04:47:23.510Z,25.29
2023-07-01T04:49:54.129Z,25.51
2023-07-01T04:52:25.897Z,25.70
2023-07-01T04:54:53.812Z,25.87
2023-07-01T04:57:20.817Z,25.46
2023-07-01T04:59:47.786Z,25.25
2023-07-01T05:02:14.842Z,25.19
2023-07-01T05:04:42.259Z,25.08
2023-07-01T05:07:09.494Z,25.31
2023-07-01T05:09:36.526Z,25.51
2023-07-01T05:12:04.377Z,25.83
2023-07-01T05:14:31.238Z,26.45
2023-07-01T05:16:58.270Z,26.73
2023-07-01T05:19:25.293Z,26.79
2023-07-01T05:21:53.942Z,27.06
2023-07-01T05:24:21.170Z,26.90
2023-07-01T05:26:50.211Z,27.15
2023-07-01T05:29:18.431Z,27.68
2023-07-01T05:31:45.452Z,28.10
2023-07-01T05:34:12.365Z,28.64
2023-07-01T05:36:39.332Z,29.47
2023-07-01T05:39:06.379Z,29.81
2023-07-01T05:41:33.501Z,30.53
2023-07-01T05:44:02.065Z,30.99
2023-07-01T05:46:30.731Z,31.10
2023-07-01T05:48:57.809Z,30.96
2023-07-01T05:51:24.717Z,30.96
2023-07-01T05:53:51.768Z,31.14
2023-07-01T05:56:18.862Z,30.50
2023-07-01T05:58:45.889Z,30.60
2023-07-01T06:01:12.889Z,30.32
2023-07-01T06:03:39.993Z,30.08
2023-07-01T06:06:07.011Z,29.96
2023-07-01T06:08:33.953Z,30.04
2023-07-01T06:11:00.944Z,29.80
2023-07-01T06:13:27.952Z,29.74
2023-07-01T06:15:55.083Z,29.56
2023-07-01T06:18:22.146Z,29.75
2023-07-01T06:20:49.482Z,30.03
2023-07-01T06:23:18.570Z,30.28
2023-07-01T06:25:45.702Z,30.74
2023-07-01T06:28:12.609Z,30.42
2023-07-01T06:30:40.534Z,29.37
2023-07-01T06:33:09.904Z,29.69
2023-07-01T06:35:36.751Z,29.85
2023-07-01T06:38:03.866Z,30.15
2023-07-01T06:40:30.920Z,29.22
2023-07-01T06:42:57.969Z,29.23
2023-07-01T06:45:24.965Z,28.78
2023-07-01T06:47:52.029Z,28.40
2023-07-01T06:50:18.953Z,28.44
2023-07-01T06:52:47.172Z,28.73
2023-07-01T06:55:15.197Z,29.23
2023-07-01T06:57:43.815Z,27.99
2023-07-01T07:00:12.849Z,27.97
2023-07-01T07:02:40.813Z,28.23
2023-07-01T07:05:09.985Z,27.81
2023-07-01T07:07:36.966Z,28.54
2023-07-01T07:10:04.837Z,28.65
2023-07-01T07:12:31.884Z,28.80
2023-07-01T07:14:58.834Z,28.74
2023-07-01T07:17:25.883Z,28.35
2023-07-01T07:19:53.191Z,28.80
2023-07-01T07:22:20.837Z,28.86
2023-07-01T07:24:47.930Z,28.74
2023-07-01T07:27:15.099Z,29.54
2023-07-01T07:29:42.111Z,29.41
2023-07-01T07:32:09.652Z,29.69
2023-07-01T07:34:36.849Z,30.06
2023-07-01T07:37:05.754Z,30.25
2023-07-01T07:39:32.838Z,29.91
2023-07-01T07:41:59.805Z,30.12
2023-07-01T07:44:26.768Z,30.14
2023-07-01T07:46:53.912Z,30.44
2023-07-01T07:49:21.024Z,30.45
2023-07-01T07:51:47.900Z,29.26
2023-07-01T07:54:15.036Z,29.55
2023-07-01T07:56:42.038Z,29.46
2023-07-01T07:59:08.961Z,29.95
2023-07-01T08:01:36.060Z,29.96
2023-07-01T08:04:03.131Z,30.15
2023-07-01T08:06:30.155Z,30.04
2023-07-01T08:08:57.673Z,30.82
2023-07-01T08:11:24.581Z,31.17
2023-07-01T08:13:51.594Z,31.33
2023-07-01T08:16:18.765Z,31.53
2023-07-01T08:18:45.767Z,31.83
2023-07-01T08:21:12.781Z,32.15
2023-07-01T08:23:39.720Z,32.20
2023-07-01T08:26:06.725Z,32.45
2023-07-01T08:28:33.679Z,32.19
2023-07-01T08:31:00.921Z,32.49
2023-07-01T08:33:29.727Z,32.62
2023-07-01T08:35:58.437Z,32.77
2023-07-01T08:38:30.423Z,32.77
2023-07-01T08:41:03.495Z,32.57
2023-07-01T08:43:32.058Z,32.91
2023-07-01T08:46:06.889Z,31.26
2023-07-01T08:48:34.246Z,32.58
2023-07-01T08:51:23.511Z,31.97
2023-07-01T08:53:53.288Z,32.99
2023-07-01T08:56:21.471Z,32.18
2023-07-01T08:58:49.862Z,33.43
2023-07-01T09:01:18.403Z,34.07
2023-07-01T09:03:48.264Z,34.38
2023-07-01T09:06:15.930Z,34.78
2023-07-01T09:08:43.328Z,35.12
2023-07-01T09:11:19.315Z,35.32
2023-07-01T09:13:46.316Z,35.82
2023-07-01T09:16:13.414Z,35.75
2023-07-01T09:18:45.065Z,36.29
2023-07-01T09:21:20.760Z,36.63
2023-07-01T09:23:48.288Z,37.02
2023-07-01T09:26:18.892Z,34.90
2023-07-01T09:28:48.085Z,34.54
2023-07-01T09:31:16.618Z,35.58
2023-07-01T09:34:01.919Z,34.59
2023-07-01T09:36:30.799Z,34.01
2023-07-01T09:38:58.551Z,34.24
2023-07-01T09:41:28.275Z,33.59
2023-07-01T09:43:57.603Z,33.93
2023-07-01T09:46:25.000Z,34.65
2023-07-01T09:48:54.313Z,34.96
2023-07-01T09:51:27.155Z,35.67
2023-07-01T09:53:54.466Z,36.02
2023-07-01T09:56:21.845Z,36.70
2023-07-01T09:58:51.272Z,37.13
2023-07-01T10:01:19.802Z,37.37
2023-07-01T10:03:47.224Z,36.80
2023-07-01T10:06:15.514Z,37.28
2023-07-01T10:08:44.733Z,37.56
2023-07-01T10:11:17.157Z,37.44
2023-07-01T10:13:51.487Z,37.63
2023-07-01T10:16:20.426Z,37.58
2023-07-01T10:18:47.873Z,36.71
2023-07-01T10:21:29.284Z,37.08
2023-07-01T10:23:58.840Z,36.86
2023-07-01T10:26:37.794Z,37.11
2023-07-01T10:29:33.087Z,37.08
2023-07-01T10:32:29.765Z,37.03
2023-07-01T10:34:56.796Z,37.04
2023-07-01T10:37:26.771Z,37.06
2023-07-01T10:39:55.484Z,37.27
2023-07-01T10:42:32.515Z,37.57
2023-07-01T10:45:12.142Z,37.02
2023-07-01T10:47:45.881Z,37.56
2023-07-01T10:50:14.512Z,38.00
2023-07-01T10:53:03.024Z,38.57
2023-07-01T10:55:42.376Z,38.13
2023-07-01T10:58:24.823Z,38.58
2023-07-01T11:00:59.147Z,38.52
2023-07-01T11:03:35.694Z,38.60
2023-07-01T11:06:04.387Z,38.42
2023-07-01T11:08:33.130Z,38.17
2023-07-01T11:11:00.832Z,38.03
2023-07-01T11:13:28.048Z,37.86
2023-07-01T11:16:06.696Z,37.71
2023-07-01T11:18:48.777Z,37.57
2023-07-01T11:21:20.427Z,37.59
2023-07-01T11:24:15.344Z,37.06
2023-07-01T11:26:44.557Z,37.54
2023-07-01T11:29:19.309Z,37.38
2023-07-01T11:31:46.665Z,37.47
2023-07-01T11:34:18.697Z,37.63
2023-07-01T11:36:48.792Z,37.66
2023-07-01T11:39:17.799Z,37.62
2023-07-01T11:42:14.238Z,37.43
2023-07-01T11:44:41.441Z,37.62
2023-07-01T11:47:16.046Z,36.87
2023-07-01T11:49:43.481Z,37.34
2023-07-01T11:52:10.799Z,36.22
2023-07-01T11:54:40.547Z,36.55
2023-07-01T11:57:14.811Z,36.91
2023-07-01T11:59:43.766Z,36.65
2023-07-01T12:02:11.383Z,36.80
2023-07-01T12:04:38.658Z,36.72
2023-07-01T12:07:13.463Z,36.93
2023-07-01T12:09:44.645Z,36.97
2023-07-01T12:12:32.274Z,37.04
2023-07-01T12:15:10.853Z,36.68
2023-07-01T12:17:38.101Z,36.77
2023-07-01T12:20:08.777Z,36.96
2023-07-01T12:22:36.972Z,37.02
2023-07-01T12:25:04.510Z,36.98
2023-07-01T12:27:32.304Z,37.34
2023-07-01T12:29:59.380Z,37.33
2023-07-01T12:32:27.410Z,37.28
2023-07-01T12:34:55.424Z,37.19
2023-07-01T12:37:23.817Z,37.37
2023-07-01T12:39:55.050Z,37.51
2023-07-01T12:42:23.233Z,37.63
2023-07-01T12:44:50.902Z,37.77
2023-07-01T12:47:20.926Z,37.73
2023-07-01T12:49:48.361Z,37.47
2023-07-01T12:52:15.388Z,36.59
2023-07-01T12:54:42.497Z,36.79
2023-07-01T12:57:09.454Z,36.85
2023-07-01T12:59:36.516Z,36.72
2023-07-01T13:02:03.627Z,36.44
2023-07-01T13:04:30.865Z,36.49
2023-07-01T13:06:58.054Z,36.31
2023-07-01T13:09:46.259Z,36.27
2023-07-01T13:12:14.514Z,36.61
2023-07-01T13:14:41.510Z,36.60
2023-07-01T13:17:08.695Z,36.70
2023-07-01T13:19:35.812Z,36.57
2023-07-01T13:22:02.925Z,36.70
2023-07-01T13:24:38.044Z,36.80
2023-07-01T13:27:10.209Z,36.78
2023-07-01T13:29:37.270Z,36.91
2023-07-01T13:32:08.108Z,36.79
2023-07-01T13:34:42.327Z,37.14
2023-07-01T13:37:12.436Z,37.24
2023-07-01T13:39:50.199Z,37.53
2023-07-01T13:42:24.021Z,37.54
2023-07-01T13:44:58.505Z,37.58
2023-07-01T13:47:47.194Z,37.91
2023-07-01T13:50:25.906Z,37.71
2023-07-01T13:53:00.153Z,37.77
2023-07-01T13:55:29.958Z,37.64
2023-07-01T13:57:56.885Z,37.68
2023-07-01T14:00:23.775Z,37.61
2023-07-01T14:02:51.012Z,37.56
2023-07-01T14:05:18.195Z,37.03
2023-07-01T14:07:45.740Z,37.37
2023-07-01T14:10:30.336Z,37.25
2023-07-01T14:12:58.708Z,37.00
2023-07-01T14:15:37.978Z,33.82
2023-07-01T14:18:29.245Z,31.23
2023-07-01T14:20:59.923Z,30.19
2023-07-01T14:23:32.433Z,30.02
2023-07-01T14:25:59.867Z,29.74
2023-07-01T14:28:27.214Z,29.18
2023-07-01T14:31:04.958Z,27.26
2023-07-01T14:33:39.376Z,27.72
2023-07-01T14:36:12.017Z,26.99
2023-07-01T14:38:48.292Z,27.87
2023-07-01T14:41:47.744Z,27.69
2023-07-01T14:44:20.398Z,26.56
2023-07-01T14:46:47.687Z,26.48
2023-07-01T14:49:14.853Z,27.06
2023-07-01T14:51:41.843Z,25.81
2023-07-01T14:54:08.918Z,25.89
2023-07-01T14:56:35.920Z,26.19
2023-07-01T14:59:03.115Z,26.92
2023-07-01T15:01:30.163Z,27.24
2023-07-01T15:03:57.163Z,27.12
2023-07-01T15:06:24.267Z,27.06
2023-07-01T15:08:51.220Z,26.89
2023-07-01T15:11:19.788Z,27.02
2023-07-01T15:13:47.136Z,27.45
2023-07-01T15:16:14.785Z,26.82
2023-07-01T15:18:41.892Z,26.66
2023-07-01T15:21:08.976Z,27.02
2023-07-01T15:23:35.898Z,27.59
2023-07-01T15:26:02.858Z,27.59
2023-07-01T15:28:29.980Z,27.73
2023-07-01T15:30:57.001Z,27.03
2023-07-01T15:33:24.009Z,27.34
2023-07-01T15:35:51.240Z,27.43
2023-07-01T15:38:18.816Z,27.24
2023-07-01T15:40:47.939Z,27.51
2023-07-01T15:43:18.007Z,27.01
2023-07-01T15:45:47.609Z,26.01
2023-07-01T15:48:15.245Z,25.87
2023-07-01T15:50:42.271Z,26.92
2023-07-01T15:53:09.192Z,26.88
2023-07-01T15:55:36.927Z,27.07
2023-07-01T15:58:04.948Z,27.12
2023-07-01T16:00:32.062Z,27.50
2023-07-01T16:02:59.120Z,27.93
2023-07-01T16:05:27.824Z,27.81
2023-07-01T16:08:00.100Z,27.92
2023-07-01T16:10:28.117Z,28.08
2023-07-01T16:12:57.825Z,27.93
2023-07-01T16:15:25.279Z,27.31
2023-07-01T16:17:55.150Z,27.60
2023-07-01T16:20:34.685Z,27.89
2023-07-01T16:23:11.393Z,27.95
2023-07-01T16:25:41.480Z,27.94
2023-07-01T16:28:09.293Z,28.04
2023-07-01T16:30:41.615Z,27.51
2023-07-01T16:33:09.214Z,27.69
2023-07-01T16:35:48.671Z,27.59
2023-07-01T16:38:30.541Z,27.68
2023-07-01T16:41:01.193Z,27.99
2023-07-01T16:43:43.682Z,28.17
2023-07-01T16:46:11.091Z,28.07
2023-07-01T16:48:45.544Z,28.01
2023-07-01T16:51:15.327Z,28.24
2023-07-01T16:53:47.589Z,28.30
2023-07-01T16:56:16.649Z,28.25
2023-07-01T16:58:52.014Z,28.23
2023-07-01T17:01:37.687Z,28.17
2023-07-01T17:04:05.022Z,28.03
2023-07-01T17:06:48.579Z,27.71
2023-07-01T17:09:39.576Z,27.52
2023-07-01T17:12:08.683Z,27.84
2023-07-01T17:14:47.748Z,27.53
2023-07-01T17:17:29.998Z,26.96
2023-07-01T17:19:58.608Z,26.75
2023-07-01T17:22:27.182Z,26.95
2023-07-01T17:24:55.012Z,27.12
2023-07-01T17:27:22.216Z,27.08
2023-07-01T17:29:49.756Z,27.12
2023-07-01T17:32:17.109Z,26.89
2023-07-01T17:34:58.854Z,26.65
2023-07-01T17:37:25.974Z,26.77
2023-07-01T17:39:52.976Z,27.17
2023-07-01T17:42:20.124Z,27.06
2023-07-01T17:44:56.039Z,27.02
2023-07-01T17:47:23.755Z,26.19
2023-07-01T17:49:50.896Z,26.48
2023-07-01T17:52:17.907Z,26.46
2023-07-01T17:54:45.095Z,26.35
2023-07-01T17:57:12.567Z,26.37
2023-07-01T17:59:40.239Z,26.32
2023-07-01T18:02:07.613Z,26.28
2023-07-01T18:04:34.602Z,26.07
2023-07-01T18:07:01.606Z,25.78
2023-07-01T18:09:28.852Z,26.26
2023-07-01T18:11:55.788Z,26.36
2023-07-01T18:14:24.724Z,26.19
2023-07-01T18:16:53.453Z,26.27
2023-07-01T18:19:21.058Z,26.03
2023-07-01T18:21:48.578Z,26.19
2023-07-01T18:24:16.857Z,26.23
2023-07-01T18:26:48.839Z,26.23
2023-07-01T18:29:16.917Z,26.29
2023-07-01T18:31:44.251Z,26.33
2023-07-01T18:34:14.958Z,26.35
2023-07-01T18:36:41.934Z,26.20
2023-07-01T18:39:08.904Z,26.25
2023-07-01T18:41:37.862Z,26.12
2023-07-01T18:44:07.193Z,25.97
2023-07-01T18:46:34.413Z,26.09
2023-07-01T18:49:01.552Z,26.15
2023-07-01T18:51:31.932Z,26.18
2023-07-01T18:53:58.904Z,26.21
2023-07-01T18:56:25.922Z,26.15
2023-07-01T18:58:53.790Z,26.04
2023-07-01T19:01:20.891Z,26.02
2023-07-01T19:03:47.895Z,26.17
2023-07-01T19:06:14.917Z,26.29
2023-07-01T19:08:42.110Z,26.32
2023-07-01T19:11:09.118Z,26.31
2023-07-01T19:13:36.129Z,26.13
2023-07-01T19:16:03.161Z,26.21
2023-07-01T19:18:30.132Z,26.28
2023-07-01T19:20:57.254Z,26.17
2023-07-01T19:23:24.212Z,26.11
2023-07-01T19:25:52.239Z,25.95
2023-07-01T19:28:23.683Z,25.79
2023-07-01T19:30:50.745Z,25.54
2023-07-01T19:33:20.528Z,25.47
2023-07-01T19:35:50.937Z,25.49
2023-07-01T19:38:18.916Z,25.60
2023-07-01T19:40:45.830Z,25.36
2023-07-01T19:43:12.797Z,25.42
2023-07-01T19:45:39.900Z,25.15
2023-07-01T19:48:07.071Z,25.22
2023-07-01T19:50:34.137Z,25.19
2023-07-01T19:53:01.168Z,25.34
2023-07-01T19:55:28.180Z,25.28
2023-07-01T19:57:55.199Z,25.29
2023-07-01T20:00:23.712Z,25.40
2023-07-01T20:02:51.686Z,25.34
2023-07-01T20:05:18.918Z,25.07
2023-07-01T20:07:45.922Z,25.37
2023-07-01T20:10:24.296Z,25.08
2023-07-01T20:12:56.708Z,25.28
2023-07-01T20:15:23.747Z,24.90
2023-07-01T20:17:50.732Z,25.04
2023-07-01T20:20:17.799Z,24.96
2023-07-01T20:22:44.794Z,25.03
2023-07-01T20:25:11.968Z,25.14
2023-07-01T20:27:38.955Z,25.04
2023-07-01T20:30:07.177Z,25.10
2023-07-01T20:32:34.235Z,25.12
2023-07-01T20:35:01.255Z,25.01
2023-07-01T20:37:28.225Z,24.96
2023-07-01T20:39:55.146Z,25.13
2023-07-01T20:42:22.683Z,25.09
2023-07-01T20:44:50.560Z,25.00
2023-07-01T20:47:17.645Z,25.07
2023-07-01T20:49:48.479Z,25.04
2023-07-01T20:52:17.261Z,24.95
2023-07-01T20:54:45.263Z,24.61
2023-07-01T20:57:16.389Z,24.47
2023-07-01T20:59:45.281Z,24.73
2023-07-01T21:02:12.957Z,24.59
2023-07-01T21:04:40.081Z,24.56
2023-07-01T21:07:08.681Z,24.60
2023-07-01T21:09:35.724Z,24.70
2023-07-01T21:12:03.170Z,24.65
2023-07-01T21:14:30.195Z,24.72
2023-07-01T21:16:57.570Z,24.78
2023-07-01T21:19:24.699Z,24.78
2023-07-01T21:21:52.188Z,24.70
2023-07-01T21:24:19.826Z,24.70
2023-07-01T21:26:47.240Z,24.61
2023-07-01T21:29:19.225Z,24.60
2023-07-01T21:31:51.932Z,24.63
2023-07-01T21:34:20.883Z,24.63
2023-07-01T21:36:51.528Z,24.29
2023-07-01T21:39:25.021Z,24.46
2023-07-01T21:41:52.427Z,24.47
2023-07-01T21:44:19.733Z,24.40
2023-07-01T21:46:49.651Z,24.27
2023-07-01T21:49:21.133Z,24.12
2023-07-01T21:51:48.555Z,24.24
2023-07-01T21:54:21.155Z,24.34
2023-07-01T21:56:50.289Z,24.12
2023-07-01T21:59:17.504Z,24.23
2023-07-01T22:01:46.941Z,24.15
2023-07-01T22:04:17.108Z,24.07
2023-07-01T22:06:48.831Z,24.08
2023-07-01T22:09:17.814Z,24.03
2023-07-01T22:11:45.455Z,24.04
2023-07-01T22:14:13.708Z,24.10
2023-07-01T22:16:41.185Z,24.00
2023-07-01T22:19:08.171Z,24.01
2023-07-01T22:21:35.153Z,23.85
2023-07-01T22:24:04.438Z,23.88
2023-07-01T22:26:31.381Z,23.91
2023-07-01T22:28:58.592Z,24.00
2023-07-01T22:31:25.633Z,24.01
2023-07-01T22:33:52.619Z,23.92
2023-07-01T22:36:20.752Z,23.74
2023-07-01T22:38:49.811Z,23.76
2023-07-01T22:41:16.775Z,23.83
2023-07-01T22:43:43.708Z,23.82
2023-07-01T22:46:11.198Z,23.88
2023-07-01T22:48:39.236Z,23.89
2023-07-01T22:51:06.337Z,23.87
2023-07-01T22:53:33.376Z,23.42
2023-07-01T22:56:01.242Z,23.78
2023-07-01T22:58:28.248Z,23.50
2023-07-01T23:00:55.332Z,23.60
2023-07-01T23:03:22.936Z,23.55
2023-07-01T23:05:50.231Z,23.62
2023-07-01T23:08:17.658Z,23.62
2023-07-01T23:10:44.640Z,23.38
2023-07-01T23:13:11.650Z,23.63
2023-07-01T23:15:39.311Z,23.74
2023-07-01T23:18:07.293Z,23.63
2023-07-01T23:20:34.310Z,23.57
2023-07-01T23:23:04.186Z,23.78
2023-07-01T23:25:33.119Z,23.79
2023-07-01T23:28:00.361Z,23.71
2023-07-01T23:30:29.157Z,23.71
2023-07-01T23:32:57.684Z,23.74
2023-07-01T23:35:25.056Z,23.73
2023-07-01T23:37:52.440Z,23.69
2023-07-01T23:40:19.605Z,23.67
2023-07-01T23:42:46.855Z,23.65
2023-07-01T23:45:17.046Z,23.64
2023-07-01T23:47:51.238Z,23.65
2023-07-01T23:50:19.601Z,23.47
2023-07-01T23:52:46.744Z,23.55
2023-07-01T23:55:13.932Z,23.39
2023-07-01T23:57:40.934Z,23.40
